createdAt,value
2023-01-17T00:01:10.808Z,94768.00
2023-01-17T00:06:50.623Z,94766.00
2023-01-17T00:12:12.266Z,94757.00
2023-01-17T00:17:33.867Z,94772.00
2023-01-17T00:23:14.157Z,94776.00
2023-01-17T00:28:38.409Z,94773.00
2023-01-17T00:33:59.602Z,94786.00
2023-01-17T00:39:20.901Z,94774.00
2023-01-17T00:45:00.568Z,94789.00
2023-01-17T00:50:42.441Z,94767.00
2023-01-17T00:56:23.040Z,94783.00
2023-01-17T01:02:03.061Z,94786.00
2023-01-17T01:07:45.014Z,94788.00
2023-01-17T01:13:24.827Z,94790.00
2023-01-17T01:19:04.872Z,94790.00
2023-01-17T01:24:44.824Z,94802.00
2023-01-17T01:30:25.354Z,94791.00
2023-01-17T01:35:53.987Z,94789.00
2023-01-17T01:41:15.192Z,94791.00
2023-01-17T01:46:41.682Z,94791.00
2023-01-17T01:52:07.956Z,94790.00
2023-01-17T01:57:33.916Z,94804.00
2023-01-17T02:02:58.782Z,94803.00
2023-01-17T02:08:23.686Z,94828.00
2023-01-17T02:13:44.927Z,94833.00
2023-01-17T02:19:46.255Z,94820.00
2023-01-17T02:25:43.461Z,94828.00
2023-01-17T02:31:47.634Z,94824.00
2023-01-17T02:37:26.979Z,94844.00
2023-01-17T02:42:55.091Z,94846.00
2023-01-17T02:48:20.180Z,94851.00
2023-01-17T02:54:06.293Z,94875.00
2023-01-17T02:59:49.487Z,94867.00
2023-01-17T03:05:39.602Z,94863.00
2023-01-17T03:11:01.642Z,94871.00
2023-01-17T03:16:24.253Z,94883.00
2023-01-17T03:21:45.754Z,94868.00
2023-01-17T03:27:07.160Z,94893.00
2023-01-17T03:32:29.121Z,94895.00
2023-01-17T03:37:50.313Z,94898.00
2023-01-17T03:43:12.046Z,94906.00
2023-01-17T03:48:34.310Z,94914.00
2023-01-17T03:53:55.516Z,94925.00
2023-01-17T03:59:17.119Z,94920.00
2023-01-17T04:04:38.623Z,94917.00
2023-01-17T04:10:00.135Z,94926.00
2023-01-17T04:15:21.613Z,94925.00
2023-01-17T04:20:42.857Z,94909.00
2023-01-17T04:26:04.665Z,94926.00
2023-01-17T04:31:26.240Z,94927.00
2023-01-17T04:36:47.709Z,94942.00
2023-01-17T04:42:09.283Z,94948.00
2023-01-17T04:47:30.988Z,94961.00
2023-01-17T04:52:52.409Z,94956.00
2023-01-17T04:58:13.929Z,94976.00
2023-01-17T05:03:35.909Z,94991.00
2023-01-17T05:08:57.397Z,94986.00
2023-01-17T05:14:18.980Z,95003.00
2023-01-17T05:19:40.449Z,95017.00
2023-01-17T05:25:01.720Z,95033.00
2023-01-17T05:30:23.480Z,95034.00
2023-01-17T05:35:45.188Z,95047.00
2023-01-17T05:41:06.882Z,95068.00
2023-01-17T05:46:28.408Z,95071.00
2023-01-17T05:51:54.833Z,95073.00
2023-01-17T05:57:17.668Z,95089.00
2023-01-17T06:02:38.867Z,95089.00
2023-01-17T06:08:00.240Z,95096.00
2023-01-17T06:13:22.143Z,95100.00
2023-01-17T06:18:43.692Z,95096.00
2023-01-17T06:24:05.418Z,95108.00
2023-01-17T06:29:27.058Z,95107.00
2023-01-17T06:34:48.471Z,95112.00
2023-01-17T06:40:10.765Z,95111.00
2023-01-17T06:45:34.398Z,95128.00
2023-01-17T06:50:57.195Z,95132.00
2023-01-17T06:56:18.497Z,95139.00
2023-01-17T07:01:40.408Z,95152.00
2023-01-17T07:07:02.611Z,95157.00
2023-01-17T07:12:24.051Z,95158.00
2023-01-17T07:17:45.589Z,95157.00
2023-01-17T07:23:06.937Z,95161.00
2023-01-17T07:28:28.974Z,95160.00
2023-01-17T07:33:50.283Z,95159.00
2023-01-17T07:39:11.943Z,95155.00
2023-01-17T07:44:33.638Z,95157.00
2023-01-17T07:49:57.970Z,95140.00
2023-01-17T07:55:19.555Z,95165.00
2023-01-17T08:00:42.496Z,95161.00
2023-01-17T08:06:03.926Z,95166.00
2023-01-17T08:11:26.232Z,95168.00
2023-01-17T08:16:47.814Z,95176.00
2023-01-17T08:22:09.409Z,95187.00
2023-01-17T08:27:31.148Z,95203.00
2023-01-17T08:32:52.907Z,95204.00
2023-01-17T08:38:14.172Z,95202.00
2023-01-17T08:43:35.353Z,95210.00
2023-01-17T08:49:02.986Z,95220.00
2023-01-17T08:54:24.401Z,95223.00
2023-01-17T08:59:46.134Z,95221.00
2023-01-17T09:05:08.223Z,95237.00
2023-01-17T09:10:29.765Z,95249.00
2023-01-17T09:15:51.094Z,95248.00
2023-01-17T09:21:17.732Z,95256.00
2023-01-17T09:26:49.941Z,95266.00
2023-01-17T09:32:11.253Z,95269.00
2023-01-17T09:37:32.561Z,95270.00
2023-01-17T09:43:01.475Z,95254.00
2023-01-17T09:48:32.214Z,95266.00
2023-01-17T09:53:54.760Z,95263.00
2023-01-17T09:59:33.259Z,95279.00
2023-01-17T10:04:59.284Z,95272.00
2023-01-17T10:10:40.086Z,95271.00
2023-01-17T10:16:32.550Z,95271.00
2023-01-17T10:22:18.872Z,95292.00
2023-01-17T10:28:00.818Z,95302.00
2023-01-17T10:33:31.854Z,95309.00
2023-01-17T10:39:00.631Z,95300.00
2023-01-17T10:44:45.217Z,95302.00
2023-01-17T10:50:11.794Z,95304.00
2023-01-17T10:55:53.546Z,95293.00
2023-01-17T11:01:19.845Z,95304.00
2023-01-17T11:06:57.365Z,95290.00
2023-01-17T11:12:45.783Z,95290.00
2023-01-17T11:18:15.711Z,95295.00
2023-01-17T11:23:38.176Z,95288.00
2023-01-17T11:29:27.505Z,95289.00
2023-01-17T11:35:28.126Z,95280.00
2023-01-17T11:40:50.770Z,95292.00
2023-01-17T11:46:20.612Z,95284.00
2023-01-17T11:51:43.393Z,95267.00
2023-01-17T11:57:06.476Z,95268.00
2023-01-17T12:02:34.375Z,95288.00
2023-01-17T12:08:23.610Z,95295.00
2023-01-17T12:14:05.609Z,95295.00
2023-01-17T12:20:06.589Z,95293.00
2023-01-17T12:25:36.985Z,95299.00
2023-01-17T12:31:44.983Z,95298.00
2023-01-17T12:37:37.287Z,95311.00
2023-01-17T12:43:13.657Z,95327.00
2023-01-17T12:48:45.876Z,95314.00
2023-01-17T12:54:25.445Z,95311.00
2023-01-17T13:00:02.143Z,95312.00
2023-01-17T13:05:35.938Z,95314.00
2023-01-17T13:11:05.166Z,95305.00
2023-01-17T13:16:34.906Z,95308.00
2023-01-17T13:21:58.060Z,95320.00
2023-01-17T13:27:19.906Z,95340.00
2023-01-17T13:33:09.344Z,95340.00
2023-01-17T13:38:57.753Z,95340.00
2023-01-17T13:44:23.170Z,95351.00
2023-01-17T13:49:45.669Z,95333.00
2023-01-17T13:55:07.315Z,95342.00
2023-01-17T14:00:28.807Z,95348.00
2023-01-17T14:05:57.115Z,95349.00
2023-01-17T14:11:18.979Z,95342.00
2023-01-17T14:16:40.343Z,95339.00
2023-01-17T14:22:33.355Z,95339.00
2023-01-17T14:28:44.725Z,95342.00
2023-01-17T14:34:13.971Z,95338.00
2023-01-17T14:39:47.552Z,95354.00
2023-01-17T14:45:13.566Z,95361.00
2023-01-17T14:50:40.853Z,95357.00
2023-01-17T14:56:15.287Z,95363.00
2023-01-17T15:01:37.333Z,95369.00
2023-01-17T15:07:00.032Z,95359.00
2023-01-17T15:12:21.679Z,95353.00
2023-01-17T15:17:43.295Z,95342.00
2023-01-17T15:23:05.468Z,95357.00
2023-01-17T15:28:28.110Z,95353.00
2023-01-17T15:33:55.454Z,95354.00
2023-01-17T15:39:38.994Z,95352.00
2023-01-17T15:45:03.438Z,95362.00
2023-01-17T15:50:30.962Z,95358.00
2023-01-17T15:55:52.253Z,95382.00
2023-01-17T16:01:23.955Z,95360.00
2023-01-17T16:06:46.879Z,95360.00
2023-01-17T16:12:08.275Z,95359.00
2023-01-17T16:17:30.897Z,95362.00
2023-01-17T16:22:52.611Z,95347.00
2023-01-17T16:28:14.604Z,95345.00
2023-01-17T16:33:36.178Z,95342.00
2023-01-17T16:38:57.790Z,95337.00
2023-01-17T16:44:19.077Z,95326.00
2023-01-17T16:49:40.586Z,95324.00
2023-01-17T16:55:02.098Z,95315.00
2023-01-17T17:00:23.931Z,95330.00
2023-01-17T17:05:47.298Z,95331.00
2023-01-17T17:11:18.986Z,95328.00
2023-01-17T17:16:40.666Z,95338.00
2023-01-17T17:22:02.352Z,95347.00
2023-01-17T17:27:26.640Z,95343.00
2023-01-17T17:32:48.300Z,95358.00
2023-01-17T17:38:10.006Z,95349.00
2023-01-17T17:43:31.359Z,95344.00
2023-01-17T17:48:53.149Z,95355.00
2023-01-17T17:54:16.576Z,95349.00
2023-01-17T17:59:38.203Z,95343.00
2023-01-17T18:04:59.876Z,95344.00
2023-01-17T18:10:21.354Z,95349.00
2023-01-17T18:15:42.468Z,95348.00
2023-01-17T18:21:23.790Z,95347.00
2023-01-17T18:26:48.160Z,95341.00
2023-01-17T18:32:10.528Z,95349.00
2023-01-17T18:37:33.297Z,95358.00
2023-01-17T18:42:54.760Z,95333.00
2023-01-17T18:48:16.828Z,95337.00
2023-01-17T18:53:39.607Z,95329.00
2023-01-17T18:59:02.564Z,95340.00
2023-01-17T19:04:23.834Z,95343.00
2023-01-17T19:09:45.409Z,95348.00
2023-01-17T19:15:07.701Z,95353.00
2023-01-17T19:20:29.333Z,95362.00
2023-01-17T19:25:57.372Z,95357.00
2023-01-17T19:31:24.903Z,95368.00
2023-01-17T19:36:46.315Z,95376.00
2023-01-17T19:42:14.324Z,95380.00
2023-01-17T19:47:36.487Z,95379.00
2023-01-17T19:52:57.927Z,95394.00
2023-01-17T19:58:19.300Z,95395.00
2023-01-17T20:03:43.793Z,95409.00
2023-01-17T20:09:06.982Z,95404.00
2023-01-17T20:14:28.228Z,95407.00
2023-01-17T20:19:49.842Z,95418.00
2023-01-17T20:25:12.099Z,95417.00
2023-01-17T20:30:34.761Z,95417.00
2023-01-17T20:36:10.481Z,95413.00
2023-01-17T20:41:40.794Z,95414.00
2023-01-17T20:47:02.579Z,95408.00
2023-01-17T20:52:25.421Z,95405.00
2023-01-17T20:57:46.793Z,95411.00
2023-01-17T21:03:08.307Z,95402.00
2023-01-17T21:08:31.606Z,95413.00
2023-01-17T21:13:52.998Z,95415.00
2023-01-17T21:19:15.114Z,95419.00
2023-01-17T21:24:36.643Z,95413.00
2023-01-17T21:29:58.283Z,95416.00
2023-01-17T21:35:19.826Z,95408.00
2023-01-17T21:40:42.715Z,95402.00
2023-01-17T21:46:04.961Z,95402.00
2023-01-17T21:51:46.393Z,95397.00
2023-01-17T21:57:26.506Z,95388.00
2023-01-17T22:02:49.012Z,95373.00
2023-01-17T22:08:16.401Z,95382.00
2023-01-17T22:13:38.891Z,95372.00
2023-01-17T22:19:00.335Z,95375.00
2023-01-17T22:24:22.329Z,95361.00
2023-01-17T22:29:43.919Z,95363.00
2023-01-17T22:35:06.798Z,95347.00
2023-01-17T22:40:28.685Z,95338.00
2023-01-17T22:45:50.011Z,95336.00
2023-01-17T22:51:16.425Z,95326.00
2023-01-17T22:56:38.216Z,95325.00
2023-01-17T23:02:00.295Z,95314.00
2023-01-17T23:07:27.086Z,95307.00
2023-01-17T23:12:48.288Z,95310.00
2023-01-17T23:18:29.417Z,95300.00
2023-01-17T23:23:51.093Z,95288.00
2023-01-17T23:29:12.518Z,95306.00
2023-01-17T23:34:33.896Z,95309.00
2023-01-17T23:39:54.971Z,95312.00
2023-01-17T23:45:16.125Z,95320.00
2023-01-17T23:50:39.274Z,95324.00
2023-01-17T23:56:06.703Z,95336.00
